createdAt,value
2023-05-10T00:02:25.578Z,99.11
2023-05-10T00:04:52.300Z,99.26
2023-05-10T00:07:18.870Z,98.96
2023-05-10T00:09:45.302Z,98.83
2023-05-10T00:12:11.771Z,99.59
2023-05-10T00:14:38.093Z,98.79
2023-05-10T00:17:04.515Z,99.01
2023-05-10T00:19:30.997Z,99.02
2023-05-10T00:21:57.388Z,99.48
2023-05-10T00:24:23.765Z,98.95
2023-05-10T00:26:50.174Z,98.90
2023-05-10T00:29:16.629Z,99.05
2023-05-10T00:31:43.014Z,98.83
2023-05-10T00:34:09.493Z,99.21
2023-05-10T00:36:35.903Z,98.73
2023-05-10T00:39:04.113Z,98.90
2023-05-10T00:41:33.580Z,98.95
2023-05-10T00:43:59.925Z,98.86
2023-05-10T00:46:26.936Z,98.91
2023-05-10T00:48:53.621Z,99.07
2023-05-10T00:51:20.141Z,98.97
2023-05-10T00:53:47.086Z,98.97
2023-05-10T00:56:13.924Z,98.81
2023-05-10T00:58:40.876Z,98.80
2023-05-10T01:01:08.650Z,98.87
2023-05-10T01:03:35.414Z,98.76
2023-05-10T01:06:01.833Z,98.90
2023-05-10T01:08:29.868Z,98.83
2023-05-10T01:10:56.519Z,98.74
2023-05-10T01:13:37.050Z,98.87
2023-05-10T01:16:04.314Z,98.94
2023-05-10T01:18:34.085Z,99.01
2023-05-10T01:21:12.476Z,99.00
2023-05-10T01:23:47.677Z,98.92
2023-05-10T01:26:26.170Z,99.00
2023-05-10T01:29:17.439Z,98.91
2023-05-10T01:32:17.257Z,98.98
2023-05-10T01:35:00.759Z,98.91
2023-05-10T01:37:39.069Z,99.07
2023-05-10T01:40:19.576Z,99.02
2023-05-10T01:43:16.843Z,98.85
2023-05-10T01:46:05.546Z,98.92
2023-05-10T01:48:33.217Z,98.84
2023-05-10T01:50:59.813Z,98.84
2023-05-10T01:53:27.506Z,98.75
2023-05-10T01:55:58.446Z,98.81
2023-05-10T01:58:31.354Z,98.71
2023-05-10T02:01:01.732Z,98.84
2023-05-10T02:03:29.472Z,98.75
2023-05-10T02:05:58.062Z,98.85
2023-05-10T02:08:25.881Z,98.88
2023-05-10T02:10:55.498Z,98.90
2023-05-10T02:13:24.085Z,98.97
2023-05-10T02:15:52.292Z,98.59
2023-05-10T02:18:19.321Z,98.74
2023-05-10T02:20:47.860Z,98.80
2023-05-10T02:23:17.821Z,98.76
2023-05-10T02:25:45.615Z,98.83
2023-05-10T02:28:13.932Z,98.87
2023-05-10T02:30:41.213Z,98.86
2023-05-10T02:33:08.464Z,98.77
2023-05-10T02:35:36.207Z,98.57
2023-05-10T02:38:03.564Z,98.75
2023-05-10T02:40:31.324Z,98.78
2023-05-10T02:43:00.073Z,98.77
2023-05-10T02:45:30.084Z,98.61
2023-05-10T02:47:57.330Z,98.58
2023-05-10T02:50:28.317Z,98.72
2023-05-10T02:53:00.397Z,98.65
2023-05-10T02:55:33.248Z,98.62
2023-05-10T02:58:01.961Z,98.55
2023-05-10T03:00:28.473Z,98.46
2023-05-10T03:02:54.957Z,98.51
2023-05-10T03:05:21.592Z,98.33
2023-05-10T03:07:48.690Z,98.35
2023-05-10T03:10:15.436Z,98.55
2023-05-10T03:12:52.016Z,98.58
2023-05-10T03:15:53.774Z,98.48
2023-05-10T03:18:24.369Z,98.65
2023-05-10T03:20:55.835Z,98.57
2023-05-10T03:23:31.309Z,98.80
2023-05-10T03:25:58.803Z,98.88
2023-05-10T03:28:26.922Z,98.49
2023-05-10T03:30:55.311Z,98.72
2023-05-10T03:33:22.035Z,98.72
2023-05-10T03:35:48.660Z,98.87
2023-05-10T03:38:15.318Z,98.89
2023-05-10T03:40:41.713Z,99.08
2023-05-10T03:43:08.096Z,98.97
2023-05-10T03:45:34.571Z,98.58
2023-05-10T03:48:00.994Z,98.69
2023-05-10T03:50:27.427Z,98.71
2023-05-10T03:52:54.869Z,98.65
2023-05-10T03:55:21.453Z,98.74
2023-05-10T03:57:50.375Z,98.84
2023-05-10T04:00:17.664Z,98.96
2023-05-10T04:02:46.073Z,98.74
2023-05-10T04:05:13.430Z,98.91
2023-05-10T04:07:39.806Z,99.09
2023-05-10T04:10:06.717Z,99.07
2023-05-10T04:12:33.106Z,98.95
2023-05-10T04:14:59.532Z,98.96
2023-05-10T04:17:26.110Z,99.23
2023-05-10T04:19:55.385Z,99.10
2023-05-10T04:22:21.749Z,98.52
2023-05-10T04:24:48.175Z,98.88
2023-05-10T04:27:14.518Z,99.10
2023-05-10T04:29:41.036Z,98.27
2023-05-10T04:32:07.483Z,98.93
2023-05-10T04:34:35.106Z,98.67
2023-05-10T04:37:01.568Z,98.64
2023-05-10T04:39:27.953Z,98.45
2023-05-10T04:41:54.317Z,99.01
2023-05-10T04:44:20.653Z,98.90
2023-05-10T04:46:47.197Z,98.99
2023-05-10T04:49:13.631Z,98.63
2023-05-10T04:51:39.998Z,98.85
2023-05-10T04:54:07.008Z,98.93
2023-05-10T04:56:33.790Z,98.89
2023-05-10T04:59:00.172Z,99.40
2023-05-10T05:01:26.648Z,98.88
2023-05-10T05:03:53.993Z,98.91
2023-05-10T05:06:22.097Z,98.53
2023-05-10T05:08:50.406Z,98.49
2023-05-10T05:11:17.568Z,98.82
2023-05-10T05:13:53.169Z,98.73
2023-05-10T05:16:19.618Z,98.90
2023-05-10T05:18:48.507Z,98.85
2023-05-10T05:21:19.275Z,98.75
2023-05-10T05:23:45.800Z,98.77
2023-05-10T05:26:12.145Z,98.67
2023-05-10T05:28:38.704Z,99.03
2023-05-10T05:31:08.979Z,98.71
2023-05-10T05:33:35.901Z,98.74
2023-05-10T05:36:03.812Z,98.85
2023-05-10T05:38:30.376Z,98.82
2023-05-10T05:40:56.805Z,98.67
2023-05-10T05:43:23.256Z,98.71
2023-05-10T05:45:50.283Z,98.59
2023-05-10T05:48:16.732Z,98.73
2023-05-10T05:50:43.105Z,98.21
2023-05-10T05:53:09.951Z,98.74
2023-05-10T05:55:36.389Z,98.82
2023-05-10T05:58:02.760Z,98.60
2023-05-10T06:00:29.460Z,98.60
2023-05-10T06:02:55.935Z,98.57
2023-05-10T06:05:22.712Z,98.61
2023-05-10T06:07:49.081Z,98.54
2023-05-10T06:10:15.534Z,98.25
2023-05-10T06:12:41.999Z,98.55
2023-05-10T06:15:09.089Z,98.25
2023-05-10T06:17:35.565Z,98.46
2023-05-10T06:20:02.132Z,98.35
2023-05-10T06:22:28.509Z,98.12
2023-05-10T06:24:54.812Z,97.74
2023-05-10T06:27:21.249Z,98.17
2023-05-10T06:29:48.315Z,98.00
2023-05-10T06:32:16.779Z,97.92
2023-05-10T06:34:44.359Z,98.01
2023-05-10T06:37:10.707Z,98.01
2023-05-10T06:39:37.723Z,97.78
2023-05-10T06:42:05.512Z,97.71
2023-05-10T06:44:31.929Z,97.55
2023-05-10T06:46:58.338Z,97.60
2023-05-10T06:49:24.778Z,97.91
2023-05-10T06:51:51.144Z,97.70
2023-05-10T06:54:17.614Z,97.86
2023-05-10T06:56:44.101Z,97.55
2023-05-10T06:59:10.688Z,97.29
2023-05-10T07:01:37.142Z,97.60
2023-05-10T07:04:03.629Z,97.46
2023-05-10T07:06:35.757Z,97.02
2023-05-10T07:09:02.120Z,97.76
2023-05-10T07:11:28.532Z,97.11
2023-05-10T07:13:54.954Z,97.21
2023-05-10T07:16:24.372Z,96.81
2023-05-10T07:18:51.570Z,96.82
2023-05-10T07:21:18.174Z,96.19
2023-05-10T07:23:45.334Z,96.36
2023-05-10T07:26:12.547Z,95.95
2023-05-10T07:28:40.050Z,96.14
2023-05-10T07:31:06.764Z,95.73
2023-05-10T07:33:33.148Z,95.71
2023-05-10T07:35:59.564Z,95.84
2023-05-10T07:38:26.136Z,95.83
2023-05-10T07:40:52.543Z,96.10
2023-05-10T07:43:18.979Z,95.32
2023-05-10T07:45:45.368Z,94.79
2023-05-10T07:48:12.073Z,95.27
2023-05-10T07:50:38.384Z,94.68
2023-05-10T07:53:04.788Z,95.14
2023-05-10T07:55:31.085Z,94.89
2023-05-10T07:57:57.700Z,95.71
2023-05-10T08:00:24.132Z,94.88
2023-05-10T08:02:50.671Z,94.68
2023-05-10T08:05:17.377Z,95.41
2023-05-10T08:07:43.992Z,94.93
2023-05-10T08:10:14.540Z,95.18
2023-05-10T08:12:41.110Z,94.61
2023-05-10T08:15:10.329Z,95.34
2023-05-10T08:17:36.864Z,95.57
2023-05-10T08:20:03.553Z,95.39
2023-05-10T08:22:30.001Z,95.17
2023-05-10T08:24:56.419Z,95.47
2023-05-10T08:27:22.829Z,95.45
2023-05-10T08:29:50.455Z,94.99
2023-05-10T08:32:17.505Z,94.64
2023-05-10T08:34:43.994Z,94.69
2023-05-10T08:37:13.823Z,94.58
2023-05-10T08:39:40.366Z,94.39
2023-05-10T08:42:07.720Z,94.47
2023-05-10T08:44:36.610Z,94.23
2023-05-10T08:47:06.491Z,94.68
2023-05-10T08:49:33.946Z,94.55
2023-05-10T08:52:05.249Z,94.61
2023-05-10T08:54:35.594Z,94.32
2023-05-10T08:57:02.340Z,94.97
2023-05-10T08:59:29.480Z,95.01
2023-05-10T09:01:58.926Z,94.36
2023-05-10T09:04:25.947Z,94.61
2023-05-10T09:06:52.767Z,93.86
2023-05-10T09:09:20.771Z,93.60
2023-05-10T09:11:47.575Z,93.19
2023-05-10T09:14:14.493Z,92.80
2023-05-10T09:16:41.334Z,91.76
2023-05-10T09:19:09.548Z,92.74
2023-05-10T09:21:39.189Z,92.14
2023-05-10T09:24:07.697Z,90.66
2023-05-10T09:26:34.522Z,90.62
2023-05-10T09:29:01.272Z,88.61
2023-05-10T09:31:51.921Z,90.43
2023-05-10T09:34:20.044Z,89.35
2023-05-10T09:36:57.340Z,89.11
2023-05-10T09:39:37.779Z,88.62
2023-05-10T09:42:09.548Z,85.81
2023-05-10T09:44:36.703Z,86.69
2023-05-10T09:47:03.985Z,86.95
2023-05-10T09:49:30.921Z,88.17
2023-05-10T09:52:03.350Z,85.88
2023-05-10T09:54:29.819Z,85.29
2023-05-10T09:56:56.381Z,85.31
2023-05-10T09:59:25.632Z,86.41
2023-05-10T10:01:52.432Z,86.19
2023-05-10T10:04:19.050Z,86.84
2023-05-10T10:06:45.604Z,86.78
2023-05-10T10:09:12.107Z,87.32
2023-05-10T10:11:39.723Z,86.88
2023-05-10T10:14:06.448Z,87.74
2023-05-10T10:16:33.426Z,87.33
2023-05-10T10:18:59.973Z,86.19
2023-05-10T10:21:26.692Z,85.43
2023-05-10T10:23:54.046Z,86.40
2023-05-10T10:26:21.970Z,86.21
2023-05-10T10:29:08.416Z,86.09
2023-05-10T10:31:42.950Z,88.18
2023-05-10T10:34:27.494Z,87.56
2023-05-10T10:36:55.206Z,85.74
2023-05-10T10:39:21.651Z,85.07
2023-05-10T10:41:51.944Z,86.16
2023-05-10T10:44:27.362Z,86.14
2023-05-10T10:47:10.240Z,87.14
2023-05-10T10:49:42.764Z,85.07
2023-05-10T10:52:32.043Z,86.16
2023-05-10T10:55:02.768Z,84.78
2023-05-10T10:57:32.022Z,84.50
2023-05-10T11:00:23.352Z,86.82
2023-05-10T11:03:15.379Z,86.33
2023-05-10T11:05:48.652Z,83.76
2023-05-10T11:08:22.820Z,85.10
2023-05-10T11:10:54.534Z,84.49
2023-05-10T11:13:41.581Z,87.69
2023-05-10T11:16:22.505Z,86.33
2023-05-10T11:19:07.882Z,86.28
2023-05-10T11:21:45.244Z,86.26
2023-05-10T11:24:18.524Z,85.16
2023-05-10T11:26:45.245Z,84.49
2023-05-10T11:29:14.077Z,83.87
2023-05-10T11:31:47.851Z,84.68
2023-05-10T11:34:25.353Z,83.77
2023-05-10T11:36:54.790Z,80.82
2023-05-10T11:39:22.312Z,79.79
2023-05-10T11:41:50.465Z,79.97
2023-05-10T11:44:17.064Z,76.78
2023-05-10T11:46:43.834Z,79.19
2023-05-10T11:49:11.120Z,79.72
2023-05-10T11:51:37.774Z,78.37
2023-05-10T11:54:10.038Z,80.17
2023-05-10T11:56:37.660Z,78.83
2023-05-10T11:59:04.686Z,79.70
2023-05-10T12:01:32.006Z,80.71
2023-05-10T12:04:01.143Z,80.06
2023-05-10T12:06:32.179Z,80.67
2023-05-10T12:08:59.322Z,80.99
2023-05-10T12:11:28.146Z,81.21
2023-05-10T12:13:55.777Z,80.36
2023-05-10T12:16:24.793Z,79.41
2023-05-10T12:18:52.761Z,81.06
2023-05-10T12:21:20.938Z,78.54
2023-05-10T12:23:50.540Z,77.48
2023-05-10T12:26:17.112Z,76.91
2023-05-10T12:28:43.651Z,77.70
2023-05-10T12:31:10.091Z,80.18
2023-05-10T12:33:44.499Z,79.38
2023-05-10T12:36:12.850Z,77.64
2023-05-10T12:38:43.185Z,78.90
2023-05-10T12:41:12.095Z,72.89
2023-05-10T12:43:39.657Z,72.04
2023-05-10T12:46:08.087Z,70.67
2023-05-10T12:48:35.457Z,70.00
2023-05-10T12:51:03.350Z,70.10
2023-05-10T12:53:30.043Z,69.56
2023-05-10T12:55:57.083Z,72.84
2023-05-10T12:58:34.978Z,73.67
2023-05-10T13:01:03.238Z,71.46
2023-05-10T13:03:29.826Z,75.63
2023-05-10T13:05:56.171Z,73.90
2023-05-10T13:08:22.593Z,73.53
2023-05-10T13:10:49.337Z,75.66
2023-05-10T13:13:16.667Z,76.56
2023-05-10T13:15:43.229Z,78.69
2023-05-10T13:18:09.650Z,79.88
2023-05-10T13:20:36.087Z,80.51
2023-05-10T13:23:03.484Z,82.86
2023-05-10T13:25:29.937Z,86.61
2023-05-10T13:27:56.429Z,88.43
2023-05-10T13:30:23.017Z,89.39
2023-05-10T13:32:49.481Z,90.58
2023-05-10T13:35:16.421Z,91.56
2023-05-10T13:37:42.789Z,91.54
2023-05-10T13:40:09.457Z,92.47
2023-05-10T13:42:35.804Z,92.82
2023-05-10T13:45:05.269Z,93.31
2023-05-10T13:47:31.915Z,93.68
2023-05-10T13:49:58.709Z,93.22
2023-05-10T13:52:25.073Z,93.77
2023-05-10T13:54:53.216Z,94.18
2023-05-10T13:57:19.576Z,94.79
2023-05-10T13:59:45.944Z,95.67
2023-05-10T14:02:13.892Z,95.06
2023-05-10T14:04:40.443Z,94.79
2023-05-10T14:07:06.804Z,95.49
2023-05-10T14:09:33.133Z,96.17
2023-05-10T14:11:59.702Z,95.91
2023-05-10T14:14:26.263Z,95.57
2023-05-10T14:16:52.902Z,95.87
2023-05-10T14:19:19.409Z,95.89
2023-05-10T14:21:45.879Z,96.21
2023-05-10T14:24:12.837Z,96.40
2023-05-10T14:26:39.217Z,96.51
2023-05-10T14:29:05.587Z,96.05
2023-05-10T14:31:32.396Z,96.50
2023-05-10T14:33:58.772Z,96.28
2023-05-10T14:36:25.458Z,96.56
2023-05-10T14:38:52.487Z,96.95
2023-05-10T14:41:18.878Z,96.83
2023-05-10T14:43:45.321Z,96.65
2023-05-10T14:46:12.036Z,96.44
2023-05-10T14:48:38.469Z,96.26
2023-05-10T14:51:04.841Z,96.46
2023-05-10T14:53:31.267Z,96.64
2023-05-10T14:55:58.301Z,95.96
2023-05-10T14:58:24.743Z,96.11
2023-05-10T15:00:51.295Z,95.75
2023-05-10T15:03:18.237Z,96.57
2023-05-10T15:05:45.060Z,96.40
2023-05-10T15:08:13.469Z,96.35
2023-05-10T15:10:40.503Z,95.60
2023-05-10T15:13:07.077Z,96.65
2023-05-10T15:15:33.584Z,96.40
2023-05-10T15:18:00.138Z,96.44
2023-05-10T15:20:26.756Z,96.30
2023-05-10T15:22:53.131Z,96.59
2023-05-10T15:25:20.944Z,95.84
2023-05-10T15:27:47.331Z,95.37
2023-05-10T15:30:13.894Z,95.10
2023-05-10T15:32:40.980Z,95.87
2023-05-10T15:35:09.390Z,95.27
2023-05-10T15:37:35.833Z,94.70
2023-05-10T15:40:04.862Z,94.80
2023-05-10T15:42:32.577Z,94.92
2023-05-10T15:44:59.375Z,95.21
2023-05-10T15:47:27.088Z,93.39
2023-05-10T15:49:53.517Z,93.98
2023-05-10T15:52:21.547Z,94.41
2023-05-10T15:54:47.874Z,94.75
2023-05-10T15:57:14.213Z,94.28
2023-05-10T15:59:40.649Z,93.03
2023-05-10T16:02:08.723Z,93.34
2023-05-10T16:04:35.126Z,91.41
2023-05-10T16:07:01.483Z,93.54
2023-05-10T16:09:28.000Z,93.14
2023-05-10T16:11:54.548Z,93.34
2023-05-10T16:14:24.666Z,93.43
2023-05-10T16:16:51.537Z,93.62
2023-05-10T16:19:18.517Z,93.36
2023-05-10T16:21:45.059Z,94.24
2023-05-10T16:24:12.067Z,93.89
2023-05-10T16:26:41.008Z,93.99
2023-05-10T16:29:08.954Z,93.38
2023-05-10T16:31:35.466Z,93.27
2023-05-10T16:34:02.059Z,93.21
2023-05-10T16:36:29.527Z,93.17
2023-05-10T16:38:56.101Z,93.40
2023-05-10T16:41:22.654Z,93.83
2023-05-10T16:43:49.286Z,94.04
2023-05-10T16:46:16.078Z,92.74
2023-05-10T16:48:42.681Z,93.31
2023-05-10T16:51:09.424Z,91.50
2023-05-10T16:53:36.274Z,91.03
2023-05-10T16:56:03.531Z,88.69
2023-05-10T16:58:29.961Z,89.75
2023-05-10T17:00:56.440Z,90.92
2023-05-10T17:03:23.421Z,90.73
2023-05-10T17:05:50.072Z,90.51
2023-05-10T17:08:16.533Z,90.62
2023-05-10T17:10:43.094Z,89.19
2023-05-10T17:13:10.535Z,91.09
2023-05-10T17:15:38.447Z,89.29
2023-05-10T17:18:05.434Z,90.31
2023-05-10T17:20:31.970Z,90.34
2023-05-10T17:22:58.498Z,89.00
2023-05-10T17:25:24.853Z,90.10
2023-05-10T17:27:51.648Z,91.66
2023-05-10T17:30:22.476Z,91.92
2023-05-10T17:32:48.869Z,91.23
2023-05-10T17:35:15.498Z,91.16
2023-05-10T17:37:42.108Z,89.44
2023-05-10T17:40:10.067Z,88.34
2023-05-10T17:42:38.969Z,89.00
2023-05-10T17:45:05.861Z,90.53
2023-05-10T17:47:32.479Z,90.82
2023-05-10T17:49:58.949Z,91.81
2023-05-10T17:52:25.698Z,90.97
2023-05-10T17:54:53.267Z,89.97
2023-05-10T17:57:20.765Z,89.90
2023-05-10T17:59:47.503Z,91.03
2023-05-10T18:02:13.986Z,91.20
2023-05-10T18:04:41.131Z,91.01
2023-05-10T18:07:08.571Z,92.19
2023-05-10T18:09:35.344Z,91.23
2023-05-10T18:12:02.917Z,92.62
2023-05-10T18:14:39.912Z,92.06
2023-05-10T18:17:07.530Z,94.58
2023-05-10T18:19:34.157Z,93.79
2023-05-10T18:22:00.562Z,93.96
2023-05-10T18:24:40.176Z,93.74
2023-05-10T18:27:08.725Z,93.94
2023-05-10T18:29:36.095Z,93.93
2023-05-10T18:32:02.530Z,93.86
2023-05-10T18:34:28.939Z,92.86
2023-05-10T18:36:55.799Z,93.68
2023-05-10T18:39:22.176Z,93.31
2023-05-10T18:41:50.110Z,93.68
2023-05-10T18:44:16.495Z,93.71
2023-05-10T18:46:42.918Z,93.50
2023-05-10T18:49:09.555Z,94.13
2023-05-10T18:51:35.998Z,94.97
2023-05-10T18:54:02.411Z,94.23
2023-05-10T18:56:28.803Z,94.18
2023-05-10T18:58:55.220Z,94.94
2023-05-10T19:01:21.937Z,94.78
2023-05-10T19:03:48.345Z,94.41
2023-05-10T19:06:14.822Z,94.45
2023-05-10T19:08:41.221Z,94.78
2023-05-10T19:11:07.637Z,94.88
2023-05-10T19:13:34.261Z,95.21
2023-05-10T19:16:12.476Z,95.15
2023-05-10T19:18:39.812Z,95.54
2023-05-10T19:21:07.588Z,95.74
2023-05-10T19:23:34.830Z,95.95
2023-05-10T19:26:01.534Z,95.91
2023-05-10T19:28:28.223Z,95.91
2023-05-10T19:30:54.608Z,95.82
2023-05-10T19:33:28.349Z,95.98
2023-05-10T19:35:55.393Z,95.94
2023-05-10T19:38:22.833Z,95.92
2023-05-10T19:40:50.634Z,95.89
2023-05-10T19:43:17.134Z,96.22
2023-05-10T19:45:44.000Z,96.42
2023-05-10T19:48:11.064Z,96.18
2023-05-10T19:50:38.349Z,96.34
2023-05-10T19:53:04.857Z,96.35
2023-05-10T19:55:32.135Z,96.33
2023-05-10T19:58:00.597Z,96.55
2023-05-10T20:00:29.924Z,96.24
2023-05-10T20:02:56.453Z,96.41
2023-05-10T20:05:23.320Z,96.73
2023-05-10T20:07:50.329Z,96.67
2023-05-10T20:10:17.601Z,96.60
2023-05-10T20:12:52.801Z,96.55
2023-05-10T20:15:21.795Z,96.82
2023-05-10T20:17:49.489Z,96.69
2023-05-10T20:20:16.651Z,96.71
2023-05-10T20:22:45.473Z,96.45
2023-05-10T20:25:12.312Z,96.37
2023-05-10T20:27:38.967Z,96.74
2023-05-10T20:30:06.242Z,96.50
2023-05-10T20:32:32.999Z,96.23
2023-05-10T20:34:59.636Z,96.52
2023-05-10T20:37:27.514Z,96.71
2023-05-10T20:39:54.672Z,96.51
2023-05-10T20:42:22.112Z,96.72
2023-05-10T20:44:48.674Z,96.39
2023-05-10T20:47:15.783Z,96.55
2023-05-10T20:49:42.773Z,96.73
2023-05-10T20:52:09.481Z,96.53
2023-05-10T20:54:35.915Z,96.40
2023-05-10T20:57:02.363Z,95.91
2023-05-10T20:59:29.287Z,96.02
2023-05-10T21:01:57.400Z,96.17
2023-05-10T21:04:25.462Z,96.38
2023-05-10T21:06:52.947Z,96.39
2023-05-10T21:09:19.462Z,95.89
2023-05-10T21:11:45.873Z,96.23
2023-05-10T21:14:12.309Z,96.48
2023-05-10T21:16:38.944Z,96.79
2023-05-10T21:19:07.074Z,97.07
2023-05-10T21:21:33.775Z,96.82
2023-05-10T21:24:00.188Z,96.78
2023-05-10T21:26:26.604Z,96.24
2023-05-10T21:28:53.222Z,96.52
2023-05-10T21:31:19.636Z,96.67
2023-05-10T21:33:46.042Z,96.58
2023-05-10T21:36:12.482Z,97.13
2023-05-10T21:38:39.368Z,96.31
2023-05-10T21:41:08.542Z,96.78
2023-05-10T21:43:35.003Z,96.56
2023-05-10T21:46:01.533Z,96.72
2023-05-10T21:48:28.381Z,96.67
2023-05-10T21:50:55.057Z,97.00
2023-05-10T21:53:22.222Z,97.02
2023-05-10T21:55:48.607Z,96.65
2023-05-10T21:58:14.957Z,97.29
2023-05-10T22:00:41.334Z,97.00
2023-05-10T22:03:07.868Z,97.12
2023-05-10T22:05:34.371Z,97.06
2023-05-10T22:08:00.930Z,96.98
2023-05-10T22:10:27.401Z,97.01
2023-05-10T22:12:53.856Z,96.96
2023-05-10T22:15:20.264Z,96.78
2023-05-10T22:17:46.688Z,96.84
2023-05-10T22:20:13.247Z,97.10
2023-05-10T22:22:39.662Z,97.08
2023-05-10T22:25:07.346Z,97.16
2023-05-10T22:27:34.237Z,97.10
2023-05-10T22:30:00.827Z,97.09
2023-05-10T22:32:27.185Z,97.28
2023-05-10T22:34:53.600Z,97.10
2023-05-10T22:37:20.030Z,96.46
2023-05-10T22:39:46.750Z,96.90
2023-05-10T22:42:13.176Z,96.41
2023-05-10T22:44:39.641Z,97.12
2023-05-10T22:47:06.749Z,97.10
2023-05-10T22:49:33.679Z,96.67
2023-05-10T22:52:00.570Z,96.33
2023-05-10T22:54:27.820Z,96.85
2023-05-10T22:56:54.434Z,96.96
2023-05-10T22:59:21.028Z,96.75
2023-05-10T23:01:48.860Z,96.76
2023-05-10T23:04:15.781Z,97.09
2023-05-10T23:06:42.265Z,96.68
2023-05-10T23:09:08.955Z,96.44
2023-05-10T23:11:35.323Z,96.43
2023-05-10T23:14:01.709Z,96.43
2023-05-10T23:16:28.117Z,96.75
2023-05-10T23:18:54.770Z,96.67
2023-05-10T23:21:21.470Z,96.20
2023-05-10T23:23:47.974Z,96.62
2023-05-10T23:26:14.432Z,96.52
2023-05-10T23:28:40.960Z,96.77
2023-05-10T23:31:07.307Z,96.90
2023-05-10T23:33:33.813Z,96.88
2023-05-10T23:36:00.397Z,96.76
2023-05-10T23:38:26.944Z,96.88
2023-05-10T23:40:53.420Z,96.87
2023-05-10T23:43:20.706Z,96.82
2023-05-10T23:45:57.684Z,96.50
2023-05-10T23:48:24.392Z,96.77
2023-05-10T23:50:50.927Z,96.86
2023-05-10T23:53:17.435Z,96.34
2023-05-10T23:55:44.370Z,96.31
2023-05-10T23:58:11.632Z,96.56
